Industrial Dart — V2DE6 — position and weather

sailwx.info

Track history (hours):
 
Tides and Currents Weather Stations Pressure Air Temp Water Temp Dewpoint Dewpoint Depression Visibility Wind Speed Wind Dir Waves Ship Positions

Industrial Dart

Last reported at 2018-Jun-17 06:53 UTC. Time now 2018-Jun-22 20:19 UTC.
Position N 29°32' W 094°54'.

Length 120 m; draft 6.2 m.

Type: Ship. MMSI: 305187000.

Date/timePositionNaut miles runAvg speedWind from/ knotsBaromVisibWave heightAir tempDewpointWater temp
2018-Jun-17 06:53N 29°32' W 094°54'513.9
2018-Jun-17 06:30N 29°37' W 094°57'610.9
2018-Jun-17 05:58N 29°42' W 095°00'  
2018-Jun-14 14:37N 29°44' W 095°02'2 6.6
2018-Jun-14 14:23N 29°42' W 095°01'3 8.4
2018-Jun-14 14:00N 29°40' W 094°59'510.0
2018-Jun-14 13:30N 29°35' W 094°56'612.3
2018-Jun-14 12:59N 29°30' W 094°52'713.8
2018-Jun-14 12:30N 29°24' W 094°49'612.7
2018-Jun-14 12:00N 29°21' W 094°43'3610.2
2018-Jun-14 08:27N 28°48' W 094°25'  
Track history (hours):
 
Tides and Currents Weather Stations Pressure Air Temp Water Temp Dewpoint Dewpoint Depression Visibility Wind Speed Wind Dir Waves Ship Positions

Industrial Dart

Last reported at 2018-Jun-17 06:53 UTC. Time now 2018-Jun-22 20:19 UTC.
Position N 29°32' W 094°54'.

Length 120 m; draft 6.2 m.

Type: Ship. MMSI: 305187000.

Date/timePositionNaut miles runAvg speedWind from/ knotsBaromVisibWave heightAir tempDewpointWater temp
2018-Jun-17 06:53N 29°32' W 094°54'513.9
2018-Jun-17 06:30N 29°37' W 094°57'610.9
2018-Jun-17 05:58N 29°42' W 095°00'  
2018-Jun-14 14:37N 29°44' W 095°02'2 6.6
2018-Jun-14 14:23N 29°42' W 095°01'3 8.4
2018-Jun-14 14:00N 29°40' W 094°59'510.0
2018-Jun-14 13:30N 29°35' W 094°56'612.3
2018-Jun-14 12:59N 29°30' W 094°52'713.8
2018-Jun-14 12:30N 29°24' W 094°49'612.7
2018-Jun-14 12:00N 29°21' W 094°43'3610.2
2018-Jun-14 08:27N 28°48' W 094°25'  

Dump ship's entire track history